Time;durP1;ratioP1;P1;durP2;ratioP2;P2;SDS_P1;SDS_P2;PMS_P1;PMS_P2;Temp;Humidity;BMP_temperature;BMP_pressure;BME280_temperature;BME280_humidity;BME280_pressure;Samples;Min_cycle;Max_cycle;Signal;HPM_P1;HPM_P2
2022/04/24 00:01:27;;;;;;;12.10;10.90;;;;;;;;;;5042025;28;20438;-72
2022/04/24 00:03:53;;;;;;;18.47;12.07;;;;;;;;;;5049423;28;20952;-73
2022/04/24 00:06:19;;;;;;;13.37;9.23;;;;;;;;;;5040175;28;20439;-72
2022/04/24 00:08:45;;;;;;;9.30;8.40;;;;;;;;;;5041572;28;20525;-72
2022/04/24 00:11:11;;;;;;;10.10;9.03;;;;;;;;;;5040903;28;20430;-72
2022/04/24 00:13:41;;;;;;;9.33;8.50;;;;;;;;;;5037673;28;20806;-72
2022/04/24 00:16:07;;;;;;;10.13;9.13;;;;;;;;;;5043539;28;20453;-72
2022/04/24 00:18:34;;;;;;;9.67;8.73;;;;;;;;;;5046698;28;20493;-72
2022/04/24 00:21:01;;;;;;;9.27;8.47;;;;;;;;;;5046491;28;20438;-72
2022/04/24 00:23:27;;;;;;;9.73;8.93;;;;;;;;;;5050471;28;20976;-72
2022/04/24 00:25:53;;;;;;;10.53;9.10;;;;;;;;;;5045932;28;20439;-72
2022/04/24 00:28:19;;;;;;;9.27;8.47;;;;;;;;;;5046439;28;20430;-72
2022/04/24 00:30:45;;;;;;;10.97;9.97;;;;;;;;;;5047339;28;20438;-72
2022/04/24 00:33:11;;;;;;;12.43;10.03;;;;;;;;;;5044894;28;20450;-73
2022/04/24 00:35:37;;;;;;;15.90;10.30;;;;;;;;;;5047930;28;20488;-72
2022/04/24 00:38:03;;;;;;;11.53;10.30;;;;;;;;;;5047448;28;20486;-73
2022/04/24 00:40:29;;;;;;;18.13;10.03;;;;;;;;;;5046184;28;20850;-73
2022/04/24 00:42:55;;;;;;;11.57;10.57;;;;;;;;;;5049357;28;20450;-72
2022/04/24 00:45:21;;;;;;;11.07;9.93;;;;;;;;;;5047282;28;20454;-73
2022/04/24 00:47:47;;;;;;;13.97;10.47;;;;;;;;;;5050217;28;20415;-72
2022/04/24 00:50:13;;;;;;;10.77;9.67;;;;;;;;;;5047527;28;20543;-72
2022/04/24 00:52:39;;;;;;;10.87;9.90;;;;;;;;;;5048008;28;20481;-72
2022/04/24 00:55:05;;;;;;;7.30;6.57;;;;;;;;;;5047696;28;20477;-72
2022/04/24 00:57:31;;;;;;;3.53;3.00;;;;;;;;;;5048585;28;20470;-73
2022/04/24 00:59:57;;;;;;;1.80;1.30;;;;;;;;;;5046367;28;20808;-72
2022/04/24 01:02:23;;;;;;;0.70;0.70;;;;;;;;;;5045535;28;20446;-72
2022/04/24 01:04:49;;;;;;;0.40;0.40;;;;;;;;;;5048230;28;20442;-72
2022/04/24 01:07:15;;;;;;;1.60;0.30;;;;;;;;;;5049038;28;20437;-72
2022/04/24 01:09:41;;;;;;;2.20;0.53;;;;;;;;;;5043174;28;20517;-72
2022/04/24 01:12:08;;;;;;;0.30;0.30;;;;;;;;;;5044806;28;20430;-72
2022/04/24 01:14:35;;;;;;;0.30;0.30;;;;;;;;;;5045804;28;20489;-72
2022/04/24 01:17:01;;;;;;;0.43;0.43;;;;;;;;;;5046334;28;20915;-72
2022/04/24 01:19:28;;;;;;;0.30;0.30;;;;;;;;;;5047350;28;20949;-73
2022/04/24 01:21:54;;;;;;;1.23;0.30;;;;;;;;;;5047626;28;20482;-72
2022/04/24 01:24:21;;;;;;;0.40;0.40;;;;;;;;;;5045924;28;20475;-72
2022/04/24 01:26:47;;;;;;;0.50;0.50;;;;;;;;;;5045439;28;20434;-72
2022/04/24 01:29:14;;;;;;;0.30;0.30;;;;;;;;;;5046148;28;20434;-72
2022/04/24 01:31:41;;;;;;;0.70;0.30;;;;;;;;;;5046125;28;20471;-72
2022/04/24 01:34:07;;;;;;;0.30;0.30;;;;;;;;;;5047483;28;20437;-73
2022/04/24 01:36:33;;;;;;;0.30;0.30;;;;;;;;;;5045180;28;20608;-73
2022/04/24 01:38:59;;;;;;;0.40;0.40;;;;;;;;;;5045386;28;20969;-73
2022/04/24 01:41:25;;;;;;;0.50;0.40;;;;;;;;;;5048852;28;20426;-72
2022/04/24 01:43:51;;;;;;;0.33;0.30;;;;;;;;;;5047943;28;20559;-74
2022/04/24 01:46:18;;;;;;;0.30;0.30;;;;;;;;;;5046270;28;20997;-73
2022/04/24 01:48:44;;;;;;;0.30;0.30;;;;;;;;;;5046453;28;20473;-72
2022/04/24 01:51:10;;;;;;;0.30;0.30;;;;;;;;;;5046924;28;20488;-73
2022/04/24 01:53:36;;;;;;;0.50;0.40;;;;;;;;;;5048983;28;20429;-72
2022/04/24 01:56:04;;;;;;;0.30;0.30;;;;;;;;;;5050600;28;20460;-72
2022/04/24 01:58:30;;;;;;;0.77;0.50;;;;;;;;;;5051633;28;21000;-72
2022/04/24 02:00:57;;;;;;;0.30;0.30;;;;;;;;;;5050691;28;20784;-73
2022/04/24 02:03:24;;;;;;;4.03;0.40;;;;;;;;;;5053006;28;20922;-73
2022/04/24 02:05:50;;;;;;;0.50;0.50;;;;;;;;;;5052997;28;20457;-72
2022/04/24 02:08:16;;;;;;;0.77;0.40;;;;;;;;;;5049663;28;20960;-73
2022/04/24 02:10:42;;;;;;;0.53;0.50;;;;;;;;;;5048666;28;20454;-72
2022/04/24 02:13:09;;;;;;;1.10;0.47;;;;;;;;;;5053082;28;21050;-73
2022/04/24 02:15:35;;;;;;;2.87;0.50;;;;;;;;;;5053004;28;20426;-72
2022/04/24 02:18:01;;;;;;;1.80;0.50;;;;;;;;;;5050525;28;20505;-73
2022/04/24 02:20:31;;;;;;;0.53;0.53;;;;;;;;;;5047990;28;20787;-71
2022/04/24 02:22:57;;;;;;;0.50;0.50;;;;;;;;;;5050344;28;20474;-72
2022/04/24 02:25:24;;;;;;;0.37;0.37;;;;;;;;;;5052338;28;20452;-72
2022/04/24 02:27:50;;;;;;;3.30;0.47;;;;;;;;;;5049903;28;20458;-72
2022/04/24 02:30:16;;;;;;;0.30;0.30;;;;;;;;;;5047917;28;20442;-72
2022/04/24 02:32:42;;;;;;;0.40;0.40;;;;;;;;;;5050743;28;20435;-73
2022/04/24 02:35:08;;;;;;;1.60;0.40;;;;;;;;;;5049800;28;20430;-72
2022/04/24 02:37:34;;;;;;;0.30;0.30;;;;;;;;;;5050723;28;20595;-72
2022/04/24 02:40:00;;;;;;;0.30;0.30;;;;;;;;;;5049108;28;20489;-72
2022/04/24 02:42:26;;;;;;;1.50;1.03;;;;;;;;;;5050045;28;20921;-73
2022/04/24 02:44:52;;;;;;;0.40;0.40;;;;;;;;;;5052613;28;20418;-73
2022/04/24 02:47:18;;;;;;;0.33;0.33;;;;;;;;;;5052200;28;20442;-73
2022/04/24 02:49:44;;;;;;;0.40;0.40;;;;;;;;;;5049192;28;20489;-73
2022/04/24 02:52:10;;;;;;;0.97;0.60;;;;;;;;;;5046069;28;20453;-74
2022/04/24 02:54:36;;;;;;;0.50;0.30;;;;;;;;;;5049819;28;20441;-73
2022/04/24 02:57:02;;;;;;;0.40;0.40;;;;;;;;;;5049699;28;20430;-72
2022/04/24 02:59:29;;;;;;;0.30;0.30;;;;;;;;;;5049072;28;20584;-73
2022/04/24 03:01:55;;;;;;;0.30;0.30;;;;;;;;;;5047158;28;20430;-73
2022/04/24 03:04:21;;;;;;;0.30;0.30;;;;;;;;;;5049218;28;20431;-72
2022/04/24 03:06:47;;;;;;;0.40;0.40;;;;;;;;;;5045568;28;20446;-72
2022/04/24 03:09:13;;;;;;;0.30;0.30;;;;;;;;;;5049664;28;20484;-73
2022/04/24 03:11:39;;;;;;;1.70;0.30;;;;;;;;;;5048880;28;20433;-74
2022/04/24 03:14:05;;;;;;;0.30;0.30;;;;;;;;;;5048996;28;20422;-73
2022/04/24 03:16:31;;;;;;;2.00;0.43;;;;;;;;;;5049648;28;20431;-72
2022/04/24 03:18:57;;;;;;;0.30;0.30;;;;;;;;;;5047892;28;20496;-73
2022/04/24 03:21:23;;;;;;;0.30;0.30;;;;;;;;;;5047129;28;20466;-73
2022/04/24 03:23:49;;;;;;;0.53;0.27;;;;;;;;;;5047922;28;20430;-73
2022/04/24 03:26:15;;;;;;;0.30;0.30;;;;;;;;;;5049385;28;20434;-73
2022/04/24 03:28:42;;;;;;;0.63;0.53;;;;;;;;;;5046847;28;20430;-73
2022/04/24 03:31:08;;;;;;;0.87;0.47;;;;;;;;;;5048286;28;20456;-73
2022/04/24 03:33:34;;;;;;;0.30;0.30;;;;;;;;;;5044961;28;21128;-72
2022/04/24 03:36:00;;;;;;;0.30;0.30;;;;;;;;;;5048687;28;20440;-73
2022/04/24 03:38:26;;;;;;;0.30;0.30;;;;;;;;;;5049208;28;20487;-73
2022/04/24 03:40:52;;;;;;;2.97;0.30;;;;;;;;;;5049123;28;20431;-72
2022/04/24 03:43:18;;;;;;;1.10;0.30;;;;;;;;;;5049338;28;20426;-73
2022/04/24 03:45:44;;;;;;;3.70;0.40;;;;;;;;;;5046000;28;20798;-73
2022/04/24 03:48:10;;;;;;;0.30;0.30;;;;;;;;;;5049349;28;20446;-72
2022/04/24 03:50:36;;;;;;;0.30;0.30;;;;;;;;;;5044928;28;103005;-72
2022/04/24 03:53:02;;;;;;;0.37;0.37;;;;;;;;;;5049454;28;20446;-72
2022/04/24 03:55:29;;;;;;;0.70;0.30;;;;;;;;;;5047354;28;20470;-72
2022/04/24 03:57:55;;;;;;;0.30;0.30;;;;;;;;;;5049624;28;21021;-73
2022/04/24 04:00:21;;;;;;;0.30;0.30;;;;;;;;;;5048330;28;20458;-72
2022/04/24 04:02:48;;;;;;;0.30;0.30;;;;;;;;;;5049448;28;20426;-72
2022/04/24 04:05:16;;;;;;;1.90;0.40;;;;;;;;;;5047575;28;20507;-74
2022/04/24 04:07:42;;;;;;;0.87;0.33;;;;;;;;;;5047887;28;20497;-72
2022/04/24 04:10:08;;;;;;;0.30;0.30;;;;;;;;;;5048049;28;20446;-72
2022/04/24 04:12:34;;;;;;;1.00;0.50;;;;;;;;;;5049007;28;20445;-73
2022/04/24 04:15:01;;;;;;;0.40;0.40;;;;;;;;;;5048469;28;20422;-73
2022/04/24 04:17:27;;;;;;;0.50;0.47;;;;;;;;;;5046927;28;20430;-73
2022/04/24 04:19:53;;;;;;;0.30;0.30;;;;;;;;;;5048977;28;20484;-72
2022/04/24 04:22:19;;;;;;;0.30;0.30;;;;;;;;;;5048549;28;20438;-72
2022/04/24 04:24:45;;;;;;;1.40;0.30;;;;;;;;;;5047139;28;20521;-73
2022/04/24 04:27:11;;;;;;;4.13;0.40;;;;;;;;;;5044663;28;20549;-72
2022/04/24 04:29:37;;;;;;;0.50;0.50;;;;;;;;;;5049965;28;20444;-73
2022/04/24 04:32:04;;;;;;;0.47;0.47;;;;;;;;;;5048265;28;20965;-73
2022/04/24 04:34:30;;;;;;;0.73;0.50;;;;;;;;;;5048116;28;20457;-72
2022/04/24 04:36:56;;;;;;;0.30;0.30;;;;;;;;;;5046212;28;20438;-73
2022/04/24 04:39:22;;;;;;;0.40;0.40;;;;;;;;;;5048456;28;20482;-73
2022/04/24 04:41:48;;;;;;;0.40;0.40;;;;;;;;;;5049501;28;20496;-72
2022/04/24 04:44:14;;;;;;;2.63;0.50;;;;;;;;;;5048567;28;20426;-72
2022/04/24 04:46:40;;;;;;;3.13;0.60;;;;;;;;;;5048864;28;20960;-73
2022/04/24 04:49:06;;;;;;;0.50;0.50;;;;;;;;;;5046318;28;20888;-72
2022/04/24 04:51:32;;;;;;;0.40;0.30;;;;;;;;;;5049146;28;20796;-72
2022/04/24 04:53:58;;;;;;;0.40;0.40;;;;;;;;;;5048203;28;20439;-72
2022/04/24 04:56:24;;;;;;;2.00;0.30;;;;;;;;;;5044731;28;20492;-72
2022/04/24 04:58:50;;;;;;;0.40;0.40;;;;;;;;;;5042903;28;20493;-73
2022/04/24 05:01:16;;;;;;;0.30;0.30;;;;;;;;;;5046960;28;20454;-73
2022/04/24 05:03:42;;;;;;;0.60;0.40;;;;;;;;;;5045061;28;20443;-72
2022/04/24 05:06:08;;;;;;;0.87;0.43;;;;;;;;;;5047346;28;20496;-72
2022/04/24 05:08:34;;;;;;;0.30;0.30;;;;;;;;;;5045772;28;20450;-73
2022/04/24 05:11:01;;;;;;;0.37;0.37;;;;;;;;;;5047090;28;20442;-73
2022/04/24 05:13:27;;;;;;;4.70;0.40;;;;;;;;;;5047635;28;20422;-73
2022/04/24 05:15:54;;;;;;;4.10;0.50;;;;;;;;;;5046391;28;20500;-72
2022/04/24 05:18:20;;;;;;;0.30;0.30;;;;;;;;;;5045645;28;20543;-73
2022/04/24 05:20:46;;;;;;;0.50;0.50;;;;;;;;;;5047142;28;20445;-73
2022/04/24 05:23:12;;;;;;;2.00;0.87;;;;;;;;;;5048458;28;20957;-73
2022/04/24 05:25:38;;;;;;;1.10;1.00;;;;;;;;;;5048053;28;20474;-72
2022/04/24 05:28:04;;;;;;;0.60;0.53;;;;;;;;;;5043737;28;20573;-73
2022/04/24 05:30:30;;;;;;;0.60;0.60;;;;;;;;;;5045829;28;20442;-73
2022/04/24 05:32:56;;;;;;;0.40;0.40;;;;;;;;;;5045397;28;20437;-73
2022/04/24 05:35:23;;;;;;;29.47;14.33;;;;;;;;;;5047020;28;20484;-73
2022/04/24 05:37:49;;;;;;;3.00;2.67;;;;;;;;;;5044104;28;20495;-73
2022/04/24 05:40:15;;;;;;;8.93;1.80;;;;;;;;;;5047707;28;20426;-73
2022/04/24 05:42:54;;;;;;;0.93;0.60;;;;;;;;;;5048727;28;20573;-73
2022/04/24 05:45:22;;;;;;;0.40;0.40;;;;;;;;;;5045598;28;20788;-73
2022/04/24 05:47:51;;;;;;;2.23;0.60;;;;;;;;;;5048442;28;20434;-72
2022/04/24 05:50:18;;;;;;;0.40;0.40;;;;;;;;;;5045371;28;20496;-77
2022/04/24 05:52:44;;;;;;;0.40;0.40;;;;;;;;;;5046807;28;20437;-76
2022/04/24 05:55:11;;;;;;;0.70;0.70;;;;;;;;;;5048375;28;20434;-77
2022/04/24 05:57:37;;;;;;;1.23;0.50;;;;;;;;;;5042745;28;20466;-76
2022/04/24 06:00:06;;;;;;;0.30;0.30;;;;;;;;;;5047570;28;20516;-76
2022/04/24 06:02:32;;;;;;;2.10;0.30;;;;;;;;;;5046985;28;20422;-76
2022/04/24 06:04:58;;;;;;;0.50;0.50;;;;;;;;;;5046704;28;20437;-75
2022/04/24 06:07:24;;;;;;;0.40;0.40;;;;;;;;;;5048727;28;20430;-76
2022/04/24 06:09:50;;;;;;;0.40;0.40;;;;;;;;;;5045244;28;20525;-75
2022/04/24 06:12:17;;;;;;;1.60;0.40;;;;;;;;;;5045822;28;20517;-76
2022/04/24 06:14:43;;;;;;;0.63;0.50;;;;;;;;;;5047126;28;20431;-77
2022/04/24 06:17:09;;;;;;;0.50;0.50;;;;;;;;;;5047035;28;20445;-77
2022/04/24 06:19:35;;;;;;;0.43;0.43;;;;;;;;;;5046455;28;20537;-75
2022/04/24 06:22:01;;;;;;;0.40;0.40;;;;;;;;;;5046902;28;20426;-76
2022/04/24 06:24:27;;;;;;;0.30;0.30;;;;;;;;;;5043571;28;20444;-76
2022/04/24 06:26:53;;;;;;;0.83;0.60;;;;;;;;;;5044978;28;20433;-76
2022/04/24 06:29:19;;;;;;;0.47;0.47;;;;;;;;;;5047734;28;20442;-76
2022/04/24 06:31:45;;;;;;;0.40;0.40;;;;;;;;;;5047153;28;20496;-75
2022/04/24 06:34:11;;;;;;;0.97;0.97;;;;;;;;;;5045126;28;20435;-76
2022/04/24 06:36:37;;;;;;;2.53;0.30;;;;;;;;;;5045587;28;21000;-76
2022/04/24 06:39:03;;;;;;;0.47;0.47;;;;;;;;;;5046627;28;20966;-76
2022/04/24 06:41:29;;;;;;;2.10;0.57;;;;;;;;;;5045687;28;20445;-75
2022/04/24 06:43:55;;;;;;;0.40;0.40;;;;;;;;;;5050078;28;20783;-76
2022/04/24 06:46:23;;;;;;;0.77;0.43;;;;;;;;;;5049432;28;20433;-76
2022/04/24 06:48:49;;;;;;;1.00;0.40;;;;;;;;;;5051541;28;20979;-76
2022/04/24 06:51:15;;;;;;;0.60;0.60;;;;;;;;;;5048347;28;20431;-76
2022/04/24 06:53:41;;;;;;;0.30;0.30;;;;;;;;;;5049462;28;21940;-76
2022/04/24 06:56:08;;;;;;;0.40;0.40;;;;;;;;;;5050184;28;20430;-76
2022/04/24 06:58:35;;;;;;;4.10;1.70;;;;;;;;;;5051230;28;20528;-76
2022/04/24 07:01:01;;;;;;;0.50;0.40;;;;;;;;;;5049256;28;20487;-76
2022/04/24 07:03:29;;;;;;;0.40;0.40;;;;;;;;;;5052074;28;20900;-76
2022/04/24 07:05:56;;;;;;;0.30;0.30;;;;;;;;;;5050898;28;20437;-76
2022/04/24 07:08:24;;;;;;;0.30;0.30;;;;;;;;;;5049542;28;20957;-75
2022/04/24 07:10:50;;;;;;;1.17;0.70;;;;;;;;;;5048253;28;20442;-76
2022/04/24 07:13:16;;;;;;;0.40;0.40;;;;;;;;;;5046984;28;20794;-75
2022/04/24 07:15:42;;;;;;;0.50;0.50;;;;;;;;;;5050203;28;20446;-76
2022/04/24 07:18:10;;;;;;;0.30;0.30;;;;;;;;;;5049932;28;21014;-76
2022/04/24 07:20:36;;;;;;;0.47;0.30;;;;;;;;;;5046146;28;21197;-76
2022/04/24 07:23:05;;;;;;;0.33;0.33;;;;;;;;;;5047539;28;20484;-69
2022/04/24 07:25:39;;;;;;;0.40;0.40;;;;;;;;;;5049836;28;20533;-69
2022/04/24 07:28:05;;;;;;;0.40;0.40;;;;;;;;;;5047425;28;20433;-75
2022/04/24 07:30:31;;;;;;;0.67;0.33;;;;;;;;;;5048003;28;20458;-76
2022/04/24 07:32:58;;;;;;;0.30;0.30;;;;;;;;;;5050920;28;20431;-76
2022/04/24 07:35:25;;;;;;;0.60;0.40;;;;;;;;;;5049916;28;20863;-76
2022/04/24 07:37:51;;;;;;;1.47;0.33;;;;;;;;;;5050485;28;20996;-75
2022/04/24 07:40:19;;;;;;;0.50;0.40;;;;;;;;;;5049238;28;20937;-77
2022/04/24 07:42:48;;;;;;;0.40;0.40;;;;;;;;;;5049116;28;20430;-77
2022/04/24 07:45:21;;;;;;;1.23;0.43;;;;;;;;;;5048885;28;20926;-77
2022/04/24 07:47:47;;;;;;;0.50;0.50;;;;;;;;;;5050101;28;20430;-77
2022/04/24 07:50:14;;;;;;;0.57;0.40;;;;;;;;;;5050031;28;20462;-77
2022/04/24 07:52:40;;;;;;;0.50;0.50;;;;;;;;;;5050329;28;20449;-77
2022/04/24 07:55:06;;;;;;;1.60;0.60;;;;;;;;;;5049962;28;20422;-76
2022/04/24 07:57:32;;;;;;;0.47;0.47;;;;;;;;;;5049536;28;20477;-76
2022/04/24 07:59:58;;;;;;;0.30;0.30;;;;;;;;;;5049249;28;20923;-76
2022/04/24 08:02:24;;;;;;;0.50;0.50;;;;;;;;;;5046755;28;20489;-75
2022/04/24 08:04:50;;;;;;;0.50;0.37;;;;;;;;;;5047560;28;20495;-77
2022/04/24 08:07:22;;;;;;;0.33;0.33;;;;;;;;;;5046538;28;20462;-76
2022/04/24 08:09:48;;;;;;;0.60;0.30;;;;;;;;;;5048197;28;20472;-75
2022/04/24 08:12:14;;;;;;;0.70;0.30;;;;;;;;;;5047422;28;20434;-76
2022/04/24 08:14:40;;;;;;;0.40;0.40;;;;;;;;;;5050749;28;20585;-76
2022/04/24 08:17:06;;;;;;;0.30;0.30;;;;;;;;;;5049276;28;20441;-76
2022/04/24 08:19:32;;;;;;;0.90;0.90;;;;;;;;;;5046732;28;20499;-76
2022/04/24 08:21:57;;;;;;;2.50;2.43;;;;;;;;;;5049599;28;20512;-76
2022/04/24 08:24:23;;;;;;;2.87;0.60;;;;;;;;;;5048547;28;20446;-76
2022/04/24 08:26:49;;;;;;;0.40;0.30;;;;;;;;;;5049196;28;20426;-76
2022/04/24 08:29:15;;;;;;;0.50;0.50;;;;;;;;;;5038972;28;20466;-75
2022/04/24 08:31:41;;;;;;;0.70;0.70;;;;;;;;;;5045696;28;20437;-76
2022/04/24 08:34:07;;;;;;;0.43;0.43;;;;;;;;;;5045919;28;21477;-76
2022/04/24 08:36:33;;;;;;;0.77;0.77;;;;;;;;;;5049202;28;20762;-75
2022/04/24 08:38:59;;;;;;;2.83;0.50;;;;;;;;;;5049323;28;21010;-76
2022/04/24 08:41:26;;;;;;;0.60;0.60;;;;;;;;;;5049971;28;20425;-75
2022/04/24 08:43:53;;;;;;;4.23;0.53;;;;;;;;;;5048640;28;20517;-68
2022/04/24 08:46:19;;;;;;;0.77;0.40;;;;;;;;;;5049748;28;20423;-73
2022/04/24 08:48:47;;;;;;;0.40;0.40;;;;;;;;;;5048974;28;20828;-76
2022/04/24 08:51:13;;;;;;;0.40;0.40;;;;;;;;;;5042511;28;20435;-75
2022/04/24 08:53:39;;;;;;;0.40;0.40;;;;;;;;;;5045529;28;20465;-75
2022/04/24 08:56:05;;;;;;;0.50;0.50;;;;;;;;;;5048134;28;20419;-75
2022/04/24 08:58:32;;;;;;;0.40;0.40;;;;;;;;;;5049029;28;20536;-75
2022/04/24 09:00:58;;;;;;;0.30;0.30;;;;;;;;;;5048286;28;20587;-76
2022/04/24 09:03:24;;;;;;;0.90;0.90;;;;;;;;;;5045211;28;20449;-76
2022/04/24 09:05:50;;;;;;;0.70;0.70;;;;;;;;;;5047612;28;20510;-75
2022/04/24 09:08:16;;;;;;;16.90;12.07;;;;;;;;;;5048830;28;20513;-77
2022/04/24 09:10:49;;;;;;;1.73;1.73;;;;;;;;;;5048458;28;20948;-76
2022/04/24 09:13:28;;;;;;;2.30;1.37;;;;;;;;;;5049337;28;20419;-76
2022/04/24 09:15:54;;;;;;;1.13;0.70;;;;;;;;;;5047887;28;20512;-74
2022/04/24 09:18:20;;;;;;;3.23;1.00;;;;;;;;;;5048574;28;20563;-74
2022/04/24 09:20:54;;;;;;;3.17;0.60;;;;;;;;;;5048416;28;20870;-75
2022/04/24 09:23:20;;;;;;;1.90;0.50;;;;;;;;;;5049110;28;20505;-76
2022/04/24 09:25:46;;;;;;;0.70;0.70;;;;;;;;;;5048283;28;20445;-74
2022/04/24 09:28:13;;;;;;;1.07;0.60;;;;;;;;;;5047855;28;20440;-73
2022/04/24 09:30:59;;;;;;;0.67;0.67;;;;;;;;;;5048067;28;20427;-76
2022/04/24 09:33:34;;;;;;;0.80;0.63;;;;;;;;;;5048619;28;20429;-75
2022/04/24 09:36:00;;;;;;;0.40;0.40;;;;;;;;;;5047318;28;20429;-75
2022/04/24 09:38:26;;;;;;;0.50;0.50;;;;;;;;;;5048578;28;21226;-75
2022/04/24 09:40:52;;;;;;;0.70;0.70;;;;;;;;;;5047742;28;20434;-75
2022/04/24 09:43:19;;;;;;;0.30;0.30;;;;;;;;;;5047514;28;20434;-77
2022/04/24 09:45:49;;;;;;;0.50;0.50;;;;;;;;;;5049355;28;20423;-76
2022/04/24 09:48:16;;;;;;;0.50;0.50;;;;;;;;;;5046270;28;20623;-76
2022/04/24 09:50:43;;;;;;;1.13;0.50;;;;;;;;;;5047080;28;20978;-76
2022/04/24 09:53:13;;;;;;;1.70;0.50;;;;;;;;;;5049020;28;20977;-76
2022/04/24 09:55:40;;;;;;;0.40;0.40;;;;;;;;;;5046760;28;20426;-74
2022/04/24 09:58:07;;;;;;;0.53;0.53;;;;;;;;;;5045956;28;20478;-76
2022/04/24 10:00:34;;;;;;;0.57;0.57;;;;;;;;;;5047514;28;20532;-76
2022/04/24 10:03:01;;;;;;;1.00;0.83;;;;;;;;;;5046602;28;20476;-75
2022/04/24 10:05:29;;;;;;;7.07;0.60;;;;;;;;;;5047337;28;20449;-76
2022/04/24 10:07:55;;;;;;;0.63;0.63;;;;;;;;;;5039381;28;20457;-74
2022/04/24 10:10:21;;;;;;;1.50;1.40;;;;;;;;;;5048986;28;20427;-74
2022/04/24 10:12:49;;;;;;;0.53;0.53;;;;;;;;;;5049136;28;20426;-75
2022/04/24 10:15:17;;;;;;;0.50;0.50;;;;;;;;;;5049349;28;20561;-76
2022/04/24 10:18:01;;;;;;;0.60;0.60;;;;;;;;;;5049793;28;20473;-75
2022/04/24 10:20:50;;;;;;;5.30;5.10;;;;;;;;;;5052834;28;20822;-76
2022/04/24 10:23:27;;;;;;;1.03;1.03;;;;;;;;;;5049651;28;20434;-74
2022/04/24 10:25:53;;;;;;;0.53;0.53;;;;;;;;;;5050007;28;20450;-75
2022/04/24 10:28:19;;;;;;;6.63;0.50;;;;;;;;;;5052735;28;20993;-75
2022/04/24 10:31:01;;;;;;;0.43;0.43;;;;;;;;;;5050214;28;20516;-76
2022/04/24 10:33:30;;;;;;;0.50;0.50;;;;;;;;;;5052872;28;20438;-75
2022/04/24 10:36:00;;;;;;;0.40;0.40;;;;;;;;;;5052753;28;20418;-76
2022/04/24 10:38:27;;;;;;;0.40;0.40;;;;;;;;;;5052207;28;20482;-74
2022/04/24 10:40:57;;;;;;;0.50;0.50;;;;;;;;;;5051365;28;20422;-74
2022/04/24 10:43:23;;;;;;;0.43;0.43;;;;;;;;;;5052783;28;20434;-74
2022/04/24 10:45:50;;;;;;;0.50;0.50;;;;;;;;;;5052757;28;20430;-76
2022/04/24 10:48:17;;;;;;;0.40;0.40;;;;;;;;;;5048138;28;20451;-75
2022/04/24 10:50:47;;;;;;;0.47;0.47;;;;;;;;;;5050593;28;20551;-75
2022/04/24 10:53:13;;;;;;;0.40;0.40;;;;;;;;;;5050714;28;20449;-75
2022/04/24 10:55:40;;;;;;;0.50;0.50;;;;;;;;;;5048298;28;20466;-74
2022/04/24 10:58:06;;;;;;;0.50;0.50;;;;;;;;;;5050569;28;20966;-74
2022/04/24 11:00:34;;;;;;;0.83;0.83;;;;;;;;;;5048955;28;20453;-75
2022/04/24 11:03:14;;;;;;;1.03;1.03;;;;;;;;;;5047391;28;20434;-75
2022/04/24 11:05:41;;;;;;;0.57;0.57;;;;;;;;;;5049596;28;20904;-75
2022/04/24 11:08:08;;;;;;;0.50;0.50;;;;;;;;;;5049303;28;20426;-76
2022/04/24 11:10:41;;;;;;;0.60;0.60;;;;;;;;;;5049649;28;20422;-75
2022/04/24 11:13:12;;;;;;;0.57;0.57;;;;;;;;;;5047109;28;20445;-76
2022/04/24 11:15:40;;;;;;;0.70;0.70;;;;;;;;;;5043762;28;20453;-75
2022/04/24 11:18:06;;;;;;;0.57;0.57;;;;;;;;;;5051629;28;20469;-73
2022/04/24 11:20:33;;;;;;;0.63;0.60;;;;;;;;;;5051496;28;20445;-78
2022/04/24 11:22:59;;;;;;;0.57;0.50;;;;;;;;;;5041990;28;20442;-74
2022/04/24 11:25:27;;;;;;;0.40;0.40;;;;;;;;;;5043444;28;20475;-73
2022/04/24 11:27:54;;;;;;;0.30;0.30;;;;;;;;;;5046999;28;20445;-74
2022/04/24 11:30:22;;;;;;;0.40;0.40;;;;;;;;;;5046623;28;20942;-75
2022/04/24 11:32:58;;;;;;;0.67;0.47;;;;;;;;;;5046518;28;20430;-75
2022/04/24 11:35:26;;;;;;;0.77;0.77;;;;;;;;;;5047970;28;20434;-74
2022/04/24 11:37:54;;;;;;;0.80;0.73;;;;;;;;;;5041351;28;20506;-75
2022/04/24 11:40:20;;;;;;;0.57;0.57;;;;;;;;;;5045721;28;20792;-76
2022/04/24 11:42:47;;;;;;;1.20;0.63;;;;;;;;;;5042305;28;20948;-75
2022/04/24 11:50:50;;;;;;;0.50;0.50;;;;;;;;;;5044518;28;20789;-75
2022/04/24 11:53:16;;;;;;;1.10;1.10;;;;;;;;;;5045242;28;20478;-75
2022/04/24 11:58:27;;;;;;;0.60;0.60;;;;;;;;;;5048149;28;20992;-75
2022/04/24 12:00:53;;;;;;;0.40;0.40;;;;;;;;;;5044535;28;20529;-76
2022/04/24 12:03:21;;;;;;;0.33;0.33;;;;;;;;;;5048829;28;20884;-77
2022/04/24 12:05:57;;;;;;;0.40;0.40;;;;;;;;;;5047424;28;20433;-77
2022/04/24 12:08:23;;;;;;;0.60;0.60;;;;;;;;;;5047244;28;20465;-75
2022/04/24 12:10:50;;;;;;;0.40;0.40;;;;;;;;;;5049938;28;20446;-77
2022/04/24 12:13:21;;;;;;;0.43;0.43;;;;;;;;;;5047514;28;20442;-75
2022/04/24 12:15:51;;;;;;;0.30;0.30;;;;;;;;;;5047686;28;20491;-75
2022/04/24 12:18:24;;;;;;;0.50;0.50;;;;;;;;;;5047597;28;20477;-76
2022/04/24 12:20:50;;;;;;;0.33;0.33;;;;;;;;;;5044976;28;20446;-74
2022/04/24 12:23:17;;;;;;;0.53;0.53;;;;;;;;;;5045423;28;21135;-73
2022/04/24 12:25:50;;;;;;;0.40;0.40;;;;;;;;;;5045696;28;20434;-75
2022/04/24 12:28:40;;;;;;;0.60;0.60;;;;;;;;;;5049228;28;20484;-76
2022/04/24 12:31:07;;;;;;;1.57;0.40;;;;;;;;;;5044956;28;20972;-75
2022/04/24 12:33:44;;;;;;;0.40;0.40;;;;;;;;;;5047976;28;20474;-75
2022/04/24 12:36:13;;;;;;;0.93;0.70;;;;;;;;;;5048234;28;20926;-75
2022/04/24 12:38:39;;;;;;;0.40;0.40;;;;;;;;;;5040451;28;21879;-75
2022/04/24 12:41:10;;;;;;;1.00;0.97;;;;;;;;;;5049118;28;20861;-75
2022/04/24 12:43:36;;;;;;;0.57;0.57;;;;;;;;;;5045625;28;20495;-76
2022/04/24 12:46:02;;;;;;;0.53;0.53;;;;;;;;;;5045325;28;20442;-75
2022/04/24 12:48:29;;;;;;;0.60;0.50;;;;;;;;;;5045630;28;20526;-75
2022/04/24 12:50:55;;;;;;;0.50;0.50;;;;;;;;;;5050084;28;20424;-75
2022/04/24 12:53:22;;;;;;;2.63;0.40;;;;;;;;;;5048756;28;20448;-75
2022/04/24 12:55:50;;;;;;;0.40;0.40;;;;;;;;;;5049309;28;20462;-75
2022/04/24 12:58:17;;;;;;;0.40;0.40;;;;;;;;;;5046429;28;20485;-75
2022/04/24 13:00:43;;;;;;;1.50;0.63;;;;;;;;;;5043521;28;20863;-74
2022/04/24 13:03:12;;;;;;;0.40;0.40;;;;;;;;;;5048244;28;20821;-75
2022/04/24 13:05:38;;;;;;;0.30;0.30;;;;;;;;;;5045436;28;20434;-75
2022/04/24 13:08:05;;;;;;;0.37;0.37;;;;;;;;;;5049011;28;20456;-75
2022/04/24 13:10:31;;;;;;;0.60;0.40;;;;;;;;;;5049197;28;20441;-75
2022/04/24 13:13:03;;;;;;;0.93;0.93;;;;;;;;;;5047012;28;20923;-75
2022/04/24 13:15:31;;;;;;;3.40;0.70;;;;;;;;;;5046695;28;20434;-74
2022/04/24 13:18:07;;;;;;;2.50;0.40;;;;;;;;;;5042608;28;20470;-74
2022/04/24 13:20:36;;;;;;;1.80;0.40;;;;;;;;;;5046818;28;20599;-75
2022/04/24 13:23:02;;;;;;;0.73;0.73;;;;;;;;;;5038838;28;20938;-75
2022/04/24 13:25:28;;;;;;;0.53;0.50;;;;;;;;;;5047006;28;20922;-75
2022/04/24 13:27:54;;;;;;;1.07;0.40;;;;;;;;;;5046116;28;20434;-75
2022/04/24 13:30:22;;;;;;;0.50;0.50;;;;;;;;;;5042800;28;20465;-75
2022/04/24 13:32:48;;;;;;;0.40;0.40;;;;;;;;;;5046691;28;20571;-75
2022/04/24 13:35:14;;;;;;;0.30;0.30;;;;;;;;;;5047226;28;20998;-75
2022/04/24 13:40:25;;;;;;;0.50;0.50;;;;;;;;;;5046535;28;20445;-75
2022/04/24 13:42:50;;;;;;;0.30;0.30;;;;;;;;;;5049592;28;20422;-75
2022/04/24 13:45:16;;;;;;;0.60;0.60;;;;;;;;;;5045664;28;20454;-75
2022/04/24 13:47:43;;;;;;;0.50;0.50;;;;;;;;;;5048178;28;20410;-75
2022/04/24 13:50:09;;;;;;;2.10;0.40;;;;;;;;;;5046376;28;20520;-75
2022/04/24 13:52:35;;;;;;;0.40;0.40;;;;;;;;;;5050344;28;20437;-75
2022/04/24 13:55:01;;;;;;;0.47;0.47;;;;;;;;;;5050791;28;20439;-75
2022/04/24 13:57:27;;;;;;;0.53;0.40;;;;;;;;;;5052371;28;20423;-75
2022/04/24 13:59:53;;;;;;;0.50;0.50;;;;;;;;;;5037025;28;21009;-75
2022/04/24 14:02:19;;;;;;;0.50;0.50;;;;;;;;;;5050144;28;20438;-75
2022/04/24 14:04:45;;;;;;;0.50;0.50;;;;;;;;;;5047588;28;20442;-75
2022/04/24 14:07:12;;;;;;;0.43;0.43;;;;;;;;;;5048185;28;20971;-75
2022/04/24 14:09:41;;;;;;;4.93;0.30;;;;;;;;;;5044204;28;20925;-74
2022/04/24 14:12:07;;;;;;;0.50;0.43;;;;;;;;;;5048706;28;20442;-74
2022/04/24 14:14:33;;;;;;;0.60;0.60;;;;;;;;;;5046884;28;20448;-75
2022/04/24 14:16:59;;;;;;;0.40;0.40;;;;;;;;;;5053207;28;20883;-75
2022/04/24 14:19:26;;;;;;;4.73;0.60;;;;;;;;;;5042947;28;20598;-75
2022/04/24 14:21:55;;;;;;;2.53;1.50;;;;;;;;;;5049031;28;20454;-74
2022/04/24 14:24:21;;;;;;;0.40;0.40;;;;;;;;;;5047920;28;20816;-74
2022/04/24 14:26:47;;;;;;;0.50;0.50;;;;;;;;;;5050288;28;20488;-75
2022/04/24 14:29:13;;;;;;;0.60;0.60;;;;;;;;;;5043420;28;20439;-75
2022/04/24 14:31:39;;;;;;;0.63;0.50;;;;;;;;;;5046388;28;20856;-74
2022/04/24 14:34:05;;;;;;;0.60;0.60;;;;;;;;;;5045310;28;20477;-74
2022/04/24 14:36:31;;;;;;;0.60;0.60;;;;;;;;;;5037471;28;20927;-75
2022/04/24 14:38:57;;;;;;;0.50;0.50;;;;;;;;;;5046990;28;20615;-75
2022/04/24 14:41:23;;;;;;;0.40;0.40;;;;;;;;;;5047154;28;20434;-75
2022/04/24 14:43:49;;;;;;;1.63;0.50;;;;;;;;;;5049856;28;20847;-75
2022/04/24 14:57:13;;;;;;;0.93;0.50;;;;;;;;;;5050448;28;20410;-74
2022/04/24 14:59:40;;;;;;;0.60;0.60;;;;;;;;;;5039215;28;20494;-75
2022/04/24 15:02:06;;;;;;;0.30;0.30;;;;;;;;;;5039513;28;21741;-75
2022/04/24 15:04:32;;;;;;;0.37;0.37;;;;;;;;;;5045039;28;20938;-75